createdAt,value
2022-11-27T00:00:14.075Z,14.35
2022-11-27T00:02:41.032Z,15.20
2022-11-27T00:05:07.661Z,16.60
2022-11-27T00:07:34.045Z,15.55
2022-11-27T00:10:00.461Z,14.93
2022-11-27T00:12:26.826Z,15.10
2022-11-27T00:14:55.622Z,15.88
2022-11-27T00:17:22.283Z,14.35
2022-11-27T00:19:48.630Z,13.35
2022-11-27T00:22:14.967Z,14.73
2022-11-27T00:24:42.930Z,14.65
2022-11-27T00:27:09.473Z,14.27
2022-11-27T00:29:35.788Z,14.27
2022-11-27T00:32:02.334Z,14.23
2022-11-27T00:34:28.696Z,13.77
2022-11-27T00:36:55.029Z,14.73
2022-11-27T00:39:21.383Z,15.48
2022-11-27T00:41:47.719Z,14.32
2022-11-27T00:44:14.196Z,15.32
2022-11-27T00:46:41.719Z,16.13
2022-11-27T00:49:08.700Z,15.52
2022-11-27T00:51:35.573Z,14.57
2022-11-27T00:54:01.997Z,15.07
2022-11-27T00:56:30.029Z,14.55
2022-11-27T00:58:56.680Z,16.40
2022-11-27T01:01:24.677Z,15.57
2022-11-27T01:03:51.155Z,16.77
2022-11-27T01:06:18.498Z,14.85
2022-11-27T01:08:44.909Z,16.48
2022-11-27T01:11:18.558Z,15.90
2022-11-27T01:13:45.178Z,15.65
2022-11-27T01:16:13.559Z,15.73
2022-11-27T01:18:40.663Z,15.93
2022-11-27T01:21:08.572Z,15.85
2022-11-27T01:23:34.947Z,17.80
2022-11-27T01:26:07.532Z,15.00
2022-11-27T01:28:34.311Z,14.32
2022-11-27T01:31:11.232Z,14.85
2022-11-27T01:33:38.015Z,15.63
2022-11-27T01:36:05.794Z,16.45
2022-11-27T01:38:32.812Z,16.55
2022-11-27T01:41:02.254Z,16.38
2022-11-27T01:43:39.066Z,17.20
2022-11-27T01:46:09.468Z,17.55
2022-11-27T01:48:35.918Z,17.13
2022-11-27T01:51:02.306Z,16.65
2022-11-27T01:53:28.742Z,17.27
2022-11-27T01:55:57.752Z,18.35
2022-11-27T01:58:28.709Z,20.00
2022-11-27T02:00:55.139Z,18.20
2022-11-27T02:03:21.819Z,18.65
2022-11-27T02:05:48.229Z,17.75
2022-11-27T02:08:16.097Z,16.85
2022-11-27T02:10:43.087Z,16.60
2022-11-27T02:13:12.878Z,16.20
2022-11-27T02:15:54.979Z,16.02
2022-11-27T02:18:21.293Z,15.38
2022-11-27T02:20:53.586Z,15.93
2022-11-27T02:23:21.398Z,15.55
2022-11-27T02:25:50.730Z,16.98
2022-11-27T02:28:29.451Z,16.77
2022-11-27T02:30:59.426Z,15.48
2022-11-27T02:33:26.356Z,17.02
2022-11-27T02:36:01.150Z,16.92
2022-11-27T02:38:32.736Z,17.33
2022-11-27T02:41:05.145Z,17.58
2022-11-27T02:43:37.088Z,15.80
2022-11-27T02:46:05.079Z,15.80
2022-11-27T02:48:34.268Z,16.40
2022-11-27T02:51:01.923Z,16.08
2022-11-27T02:53:32.118Z,16.40
2022-11-27T02:55:59.285Z,17.63
2022-11-27T02:58:27.304Z,16.70
2022-11-27T03:00:54.910Z,15.70
2022-11-27T03:03:23.654Z,16.65
2022-11-27T03:05:52.074Z,16.88
2022-11-27T03:08:18.515Z,17.08
2022-11-27T03:10:50.674Z,16.65
2022-11-27T03:13:17.324Z,17.38
2022-11-27T03:15:52.323Z,17.10
2022-11-27T03:18:23.339Z,17.77
2022-11-27T03:20:56.233Z,17.13
2022-11-27T03:23:22.637Z,16.35
2022-11-27T03:25:48.965Z,17.45
2022-11-27T03:28:15.767Z,17.27
2022-11-27T03:30:42.286Z,16.50
2022-11-27T03:33:08.754Z,16.15
2022-11-27T03:35:35.270Z,17.77
2022-11-27T03:38:01.704Z,16.67
2022-11-27T03:40:30.493Z,16.05
2022-11-27T03:43:35.625Z,16.63
2022-11-27T03:46:14.842Z,16.85
2022-11-27T03:48:53.369Z,15.48
2022-11-27T03:51:30.986Z,15.85
2022-11-27T03:54:04.679Z,15.05
2022-11-27T03:56:30.979Z,16.27
2022-11-27T03:59:03.452Z,17.23
2022-11-27T04:01:30.744Z,15.07
2022-11-27T04:03:57.448Z,15.75
2022-11-27T04:06:23.796Z,15.32
2022-11-27T04:08:50.619Z,15.13
2022-11-27T04:11:17.029Z,14.60
2022-11-27T04:13:43.592Z,14.88
2022-11-27T04:16:10.028Z,15.07
2022-11-27T04:18:36.452Z,13.18
2022-11-27T04:21:03.167Z,14.48
2022-11-27T04:23:29.588Z,15.15
2022-11-27T04:25:55.926Z,14.52
2022-11-27T04:28:22.253Z,12.13
2022-11-27T04:30:52.716Z,13.27
2022-11-27T04:33:19.379Z,13.07
2022-11-27T04:35:47.362Z,13.63
2022-11-27T04:38:13.758Z,14.35
2022-11-27T04:40:40.203Z,13.45
2022-11-27T04:43:06.525Z,13.23
2022-11-27T04:45:34.029Z,12.93
2022-11-27T04:48:00.379Z,17.08
2022-11-27T04:50:27.783Z,15.27
2022-11-27T04:52:54.214Z,16.70
2022-11-27T04:55:20.768Z,14.25
2022-11-27T04:57:47.211Z,13.95
2022-11-27T05:00:14.463Z,12.85
2022-11-27T05:02:41.047Z,11.63
2022-11-27T05:05:07.705Z,12.38
2022-11-27T05:07:34.161Z,12.77
2022-11-27T05:10:00.858Z,12.65
2022-11-27T05:12:27.288Z,10.98
2022-11-27T05:14:53.673Z,11.43
2022-11-27T05:17:20.057Z,11.65
2022-11-27T05:19:46.436Z,10.10
2022-11-27T05:22:12.905Z,10.27
2022-11-27T05:24:39.614Z,9.77
2022-11-27T05:27:06.247Z,9.95
2022-11-27T05:29:32.635Z,9.82
2022-11-27T05:31:58.981Z,9.48
2022-11-27T05:34:25.377Z,9.52
2022-11-27T05:36:51.806Z,9.23
2022-11-27T05:39:18.391Z,9.40
2022-11-27T05:41:44.923Z,9.48
2022-11-27T05:44:12.641Z,9.77
2022-11-27T05:46:39.108Z,9.20
2022-11-27T05:49:06.539Z,9.18
2022-11-27T05:51:33.042Z,9.18
2022-11-27T05:53:59.401Z,9.25
2022-11-27T05:56:27.167Z,9.18
2022-11-27T05:58:53.780Z,9.45
2022-11-27T06:01:20.202Z,9.48
2022-11-27T06:03:46.712Z,9.57
2022-11-27T06:06:17.985Z,8.98
2022-11-27T06:08:44.677Z,9.40
2022-11-27T06:11:14.012Z,8.73
2022-11-27T06:13:40.496Z,8.18
2022-11-27T06:16:27.290Z,8.13
2022-11-27T06:18:54.545Z,8.15
2022-11-27T06:21:21.764Z,8.55
2022-11-27T06:23:48.575Z,8.52
2022-11-27T06:26:22.364Z,9.07
2022-11-27T06:28:48.996Z,8.63
2022-11-27T06:31:18.239Z,8.30
2022-11-27T06:33:45.831Z,7.72
2022-11-27T06:36:12.190Z,7.85
2022-11-27T06:38:39.073Z,7.88
2022-11-27T06:41:06.686Z,7.93
2022-11-27T06:43:33.630Z,8.45
2022-11-27T06:46:00.563Z,8.68
2022-11-27T06:48:27.029Z,8.63
2022-11-27T06:50:53.445Z,9.20
2022-11-27T06:53:19.759Z,8.88
2022-11-27T06:55:46.184Z,8.45
2022-11-27T06:58:15.456Z,9.18
2022-11-27T07:00:42.915Z,7.97
2022-11-27T07:03:09.391Z,7.90
2022-11-27T07:05:36.503Z,9.07
2022-11-27T07:08:02.964Z,8.70
2022-11-27T07:10:29.383Z,8.32
2022-11-27T07:12:56.195Z,8.57
2022-11-27T07:15:22.578Z,8.68
2022-11-27T07:17:49.011Z,8.48
2022-11-27T07:20:15.555Z,8.93
2022-11-27T07:22:41.886Z,8.95
2022-11-27T07:25:08.575Z,9.13
2022-11-27T07:27:37.384Z,9.35
2022-11-27T07:30:04.417Z,9.40
2022-11-27T07:32:31.201Z,9.88
2022-11-27T07:34:57.591Z,8.63
2022-11-27T07:37:24.021Z,9.38
2022-11-27T07:40:05.244Z,9.50
2022-11-27T07:42:39.444Z,9.60
2022-11-27T07:45:07.481Z,7.13
2022-11-27T07:47:33.875Z,9.80
2022-11-27T07:50:00.495Z,10.18
2022-11-27T07:52:27.308Z,10.50
2022-11-27T07:54:55.215Z,10.02
2022-11-27T07:57:21.538Z,9.75
2022-11-27T07:59:48.147Z,9.27
2022-11-27T08:02:15.009Z,9.45
2022-11-27T08:04:41.623Z,11.52
2022-11-27T08:07:08.349Z,11.20
2022-11-27T08:09:34.779Z,11.35
2022-11-27T08:12:01.269Z,12.68
2022-11-27T08:14:27.711Z,11.38
2022-11-27T08:16:54.201Z,10.73
2022-11-27T08:19:20.740Z,8.88
2022-11-27T08:21:47.052Z,8.20
2022-11-27T08:24:13.419Z,6.22
2022-11-27T08:26:39.819Z,5.65
2022-11-27T08:29:06.709Z,5.07
2022-11-27T08:31:33.742Z,4.70
2022-11-27T08:34:00.219Z,4.80
2022-11-27T08:36:29.575Z,4.35
2022-11-27T08:38:55.937Z,4.20
2022-11-27T08:41:22.374Z,4.65
2022-11-27T08:43:48.722Z,4.32
2022-11-27T08:46:15.158Z,4.38
2022-11-27T08:48:41.999Z,4.40
2022-11-27T08:51:09.567Z,4.53
2022-11-27T08:53:37.657Z,4.47
2022-11-27T08:56:13.890Z,4.20
2022-11-27T08:58:41.239Z,3.72
2022-11-27T09:01:08.935Z,4.25
2022-11-27T09:03:35.476Z,4.57
2022-11-27T09:06:01.895Z,4.80
2022-11-27T09:08:28.186Z,7.25
2022-11-27T09:10:54.581Z,7.90
2022-11-27T09:13:20.889Z,9.57
2022-11-27T09:15:47.391Z,9.48
2022-11-27T09:18:13.813Z,7.45
2022-11-27T09:20:40.210Z,7.43
2022-11-27T09:23:11.453Z,4.45
2022-11-27T09:25:40.492Z,4.53
2022-11-27T09:28:06.982Z,4.38
2022-11-27T09:30:33.321Z,4.15
2022-11-27T09:33:02.145Z,4.88
2022-11-27T09:35:28.508Z,3.92
2022-11-27T09:37:54.913Z,3.65
2022-11-27T09:40:21.344Z,3.80
2022-11-27T09:42:51.156Z,3.47
2022-11-27T09:45:17.773Z,3.67
2022-11-27T09:47:47.275Z,3.30
2022-11-27T09:50:22.573Z,3.20
2022-11-27T09:52:57.857Z,3.70
2022-11-27T09:55:43.147Z,3.45
2022-11-27T09:58:18.664Z,3.77
2022-11-27T10:00:45.532Z,3.83
2022-11-27T10:03:16.792Z,4.25
2022-11-27T10:06:00.054Z,4.03
2022-11-27T10:08:33.301Z,3.60
2022-11-27T10:10:59.657Z,4.18
2022-11-27T10:13:29.111Z,3.95
2022-11-27T10:15:55.463Z,4.25
2022-11-27T10:19:00.411Z,4.18
2022-11-27T10:21:46.916Z,3.88
2022-11-27T10:24:23.987Z,3.78
2022-11-27T10:26:52.934Z,3.78
2022-11-27T10:29:19.435Z,3.80
2022-11-27T10:31:45.814Z,3.63
2022-11-27T10:34:31.147Z,3.58
2022-11-27T10:37:00.846Z,3.57
2022-11-27T10:39:41.071Z,3.30
2022-11-27T10:42:10.334Z,2.60
2022-11-27T10:44:41.907Z,2.95
2022-11-27T10:47:10.373Z,2.70
2022-11-27T10:49:39.024Z,2.42
2022-11-27T10:52:05.434Z,2.10
2022-11-27T10:54:39.991Z,2.50
2022-11-27T10:57:26.923Z,2.67
2022-11-27T11:00:06.074Z,2.40
2022-11-27T11:02:33.656Z,2.22
2022-11-27T11:05:32.847Z,2.50
2022-11-27T11:08:14.448Z,2.20
2022-11-27T11:10:45.360Z,2.17
2022-11-27T11:13:11.766Z,2.88
2022-11-27T11:15:51.463Z,2.75
2022-11-27T11:18:19.643Z,2.45
2022-11-27T11:20:51.355Z,3.05
2022-11-27T11:23:22.054Z,2.50
2022-11-27T11:25:49.723Z,2.20
2022-11-27T11:28:21.097Z,2.35
2022-11-27T11:31:01.770Z,2.30
2022-11-27T11:33:28.380Z,2.05
2022-11-27T11:35:57.102Z,1.98
2022-11-27T11:38:28.829Z,2.53
2022-11-27T11:41:00.319Z,2.40
2022-11-27T11:43:28.743Z,2.10
2022-11-27T11:46:03.233Z,2.88
2022-11-27T11:48:29.697Z,2.28
2022-11-27T11:50:56.055Z,2.40
2022-11-27T11:53:42.346Z,2.67
2022-11-27T11:56:27.579Z,2.63
2022-11-27T11:58:58.261Z,2.63
2022-11-27T12:01:30.792Z,2.67
2022-11-27T12:03:57.455Z,2.60
2022-11-27T12:06:29.046Z,2.63
2022-11-27T12:09:13.899Z,2.67
2022-11-27T12:11:47.224Z,2.92
2022-11-27T12:14:29.133Z,3.05
2022-11-27T12:17:03.329Z,2.97
2022-11-27T12:19:48.708Z,3.05
2022-11-27T12:22:24.199Z,2.85
2022-11-27T12:27:16.768Z,3.47
2022-11-27T12:29:48.208Z,3.20
2022-11-27T12:32:30.307Z,3.45
2022-11-27T12:34:56.625Z,3.38
2022-11-27T12:37:23.206Z,4.35
2022-11-27T12:39:55.702Z,3.47
2022-11-27T12:42:25.064Z,3.88
2022-11-27T12:44:56.470Z,3.70
2022-11-27T12:47:26.876Z,3.83
2022-11-27T12:49:57.431Z,3.70
2022-11-27T12:52:25.825Z,3.88
2022-11-27T12:55:12.895Z,4.30
2022-11-27T12:57:50.625Z,4.47
2022-11-27T13:00:21.179Z,4.40
2022-11-27T13:02:50.693Z,4.38
2022-11-27T13:05:23.296Z,4.38
2022-11-27T13:07:55.831Z,4.47
2022-11-27T13:10:34.884Z,4.60
2022-11-27T13:13:19.871Z,4.65
2022-11-27T13:15:54.837Z,4.78
2022-11-27T13:18:21.172Z,4.43
2022-11-27T13:20:52.341Z,4.60
2022-11-27T13:23:20.052Z,4.82
2022-11-27T13:25:48.565Z,5.07
2022-11-27T13:28:50.227Z,5.13
2022-11-27T13:31:21.906Z,4.93
2022-11-27T13:33:48.969Z,3.90
2022-11-27T13:36:20.740Z,4.03
2022-11-27T13:38:52.011Z,3.95
2022-11-27T13:41:23.060Z,4.10
2022-11-27T13:43:52.262Z,3.78
2022-11-27T13:46:25.105Z,3.95
2022-11-27T13:48:54.099Z,3.88
2022-11-27T13:51:28.556Z,4.40
2022-11-27T13:54:06.462Z,3.70
2022-11-27T13:56:32.872Z,3.88
2022-11-27T13:58:59.280Z,3.58
2022-11-27T14:01:25.866Z,3.38
2022-11-27T14:03:52.567Z,3.35
2022-11-27T14:06:24.814Z,4.28
2022-11-27T14:08:53.551Z,3.55
2022-11-27T14:11:29.140Z,3.55
2022-11-27T14:16:48.286Z,3.55
2022-11-27T14:19:30.665Z,3.55
2022-11-27T14:22:00.255Z,3.17
2022-11-27T14:24:26.612Z,3.40
2022-11-27T14:26:53.649Z,3.50
2022-11-27T14:29:20.934Z,3.50
2022-11-27T14:31:56.104Z,3.40
2022-11-27T14:34:32.527Z,3.45
2022-11-27T14:36:59.273Z,4.20
2022-11-27T14:39:29.475Z,3.75
2022-11-27T14:42:19.147Z,4.10
2022-11-27T14:44:45.534Z,3.85
2022-11-27T14:47:17.082Z,3.72
2022-11-27T14:49:43.704Z,4.22
2022-11-27T14:52:13.722Z,4.20
2022-11-27T14:54:40.611Z,3.72
2022-11-27T14:57:07.653Z,4.05
2022-11-27T14:59:34.203Z,3.40
2022-11-27T15:02:02.513Z,4.18
2022-11-27T15:04:33.147Z,4.18
2022-11-27T15:06:59.638Z,4.50
2022-11-27T15:09:32.100Z,4.65
2022-11-27T15:12:14.351Z,4.53
2022-11-27T15:14:45.186Z,5.20
2022-11-27T15:17:16.174Z,4.72
2022-11-27T15:19:43.323Z,4.97
2022-11-27T15:22:15.765Z,5.38
2022-11-27T15:24:42.170Z,4.38
2022-11-27T15:27:14.245Z,5.32
2022-11-27T15:29:42.252Z,4.72
2022-11-27T15:32:24.031Z,5.30
2022-11-27T15:34:51.126Z,5.97
2022-11-27T15:37:30.788Z,5.65
2022-11-27T15:39:59.523Z,5.40
2022-11-27T15:42:29.080Z,6.10
2022-11-27T15:44:58.937Z,6.25
2022-11-27T15:47:28.103Z,5.22
2022-11-27T15:49:54.763Z,5.35
2022-11-27T15:52:21.375Z,5.95
2022-11-27T15:54:47.919Z,5.72
2022-11-27T15:57:14.323Z,5.70
2022-11-27T15:59:40.796Z,5.85
2022-11-27T16:02:07.310Z,5.97
2022-11-27T16:04:33.845Z,5.95
2022-11-27T16:07:00.167Z,6.20
2022-11-27T16:09:26.569Z,6.55
2022-11-27T16:11:52.937Z,6.72
2022-11-27T16:14:19.423Z,6.40
2022-11-27T16:16:45.903Z,6.18
2022-11-27T16:19:14.745Z,7.20
2022-11-27T16:21:41.510Z,5.90
2022-11-27T16:24:10.108Z,6.10
2022-11-27T16:26:39.153Z,6.05
2022-11-27T16:29:06.062Z,6.45
2022-11-27T16:31:32.587Z,6.88
2022-11-27T16:34:01.442Z,10.73
2022-11-27T16:36:28.568Z,8.20
2022-11-27T16:38:55.673Z,8.07
2022-11-27T16:41:22.866Z,6.82
2022-11-27T16:43:50.356Z,7.15
2022-11-27T16:46:18.181Z,8.75
2022-11-27T16:48:45.123Z,8.05
2022-11-27T16:51:12.973Z,7.82
2022-11-27T16:53:39.915Z,7.70
2022-11-27T16:56:06.850Z,8.13
2022-11-27T16:58:36.942Z,7.95
2022-11-27T17:01:10.892Z,7.60
2022-11-27T17:06:28.748Z,7.03
2022-11-27T17:08:55.716Z,7.80
2022-11-27T17:11:24.717Z,7.35
2022-11-27T17:13:51.688Z,8.10
2022-11-27T17:16:18.700Z,7.55
2022-11-27T17:18:45.738Z,7.07
2022-11-27T17:21:14.864Z,7.57
2022-11-27T17:23:46.678Z,6.65
2022-11-27T17:26:14.774Z,7.65
2022-11-27T17:28:41.426Z,7.00
2022-11-27T17:31:20.793Z,6.88
2022-11-27T17:33:47.705Z,7.05
2022-11-27T17:36:14.538Z,7.22
2022-11-27T17:38:40.960Z,8.32
2022-11-27T17:41:11.754Z,7.55
2022-11-27T17:43:38.753Z,8.35
2022-11-27T17:46:16.888Z,7.78
2022-11-27T17:48:43.734Z,8.00
2022-11-27T17:51:10.957Z,7.50
2022-11-27T17:53:37.467Z,9.27
2022-11-27T17:56:04.514Z,10.23
2022-11-27T17:58:51.223Z,8.00
2022-11-27T18:01:18.562Z,7.55
2022-11-27T18:03:46.618Z,8.65
2022-11-27T18:06:13.686Z,8.82
2022-11-27T18:08:40.353Z,8.63
2022-11-27T18:11:10.844Z,8.20
2022-11-27T18:13:37.248Z,8.45
2022-11-27T18:16:05.027Z,9.70
2022-11-27T18:18:31.431Z,9.20
2022-11-27T18:20:59.526Z,9.05
2022-11-27T18:23:25.907Z,9.50
2022-11-27T18:25:55.158Z,9.90
2022-11-27T18:28:21.539Z,10.38
2022-11-27T18:30:47.959Z,8.93
2022-11-27T18:33:14.353Z,8.77
2022-11-27T18:35:41.771Z,8.68
2022-11-27T18:38:08.251Z,7.75
2022-11-27T18:40:37.420Z,8.32
2022-11-27T18:43:03.753Z,8.13
2022-11-27T18:45:33.329Z,8.88
2022-11-27T18:48:00.514Z,8.45
2022-11-27T18:50:29.613Z,8.05
2022-11-27T18:52:56.547Z,8.02
2022-11-27T18:55:23.053Z,7.65
2022-11-27T18:57:49.669Z,8.55
2022-11-27T19:00:17.594Z,7.70
2022-11-27T19:02:47.338Z,7.80
2022-11-27T19:05:14.278Z,8.05
2022-11-27T19:07:40.923Z,7.32
2022-11-27T19:10:07.747Z,8.23
2022-11-27T19:12:34.054Z,7.93
2022-11-27T19:15:00.394Z,7.47
2022-11-27T19:17:31.995Z,7.85
2022-11-27T19:19:58.772Z,7.93
2022-11-27T19:22:25.388Z,8.05
2022-11-27T19:24:51.785Z,7.78
2022-11-27T19:27:18.222Z,7.75
2022-11-27T19:29:44.694Z,7.88
2022-11-27T19:32:11.184Z,7.55
2022-11-27T19:34:37.649Z,8.35
2022-11-27T19:37:04.004Z,8.32
2022-11-27T19:39:30.421Z,7.38
2022-11-27T19:41:57.967Z,7.70
2022-11-27T19:44:24.538Z,7.32
2022-11-27T19:46:51.064Z,7.45
2022-11-27T19:49:21.347Z,8.05
2022-11-27T19:51:47.776Z,8.43
2022-11-27T19:54:14.596Z,7.22
2022-11-27T19:56:42.378Z,6.63
2022-11-27T19:59:09.162Z,7.60
2022-11-27T20:01:37.556Z,7.75
2022-11-27T20:04:04.074Z,6.65
2022-11-27T20:06:30.453Z,7.32
2022-11-27T20:09:01.082Z,7.05
2022-11-27T20:11:33.921Z,6.75
2022-11-27T20:14:01.519Z,8.05
2022-11-27T20:16:27.959Z,7.25
2022-11-27T20:18:54.725Z,7.20
2022-11-27T20:21:22.726Z,7.75
2022-11-27T20:23:50.127Z,7.18
2022-11-27T20:26:21.821Z,7.03
2022-11-27T20:28:48.602Z,7.50
2022-11-27T20:31:34.022Z,6.88
2022-11-27T20:34:01.414Z,6.68
2022-11-27T20:36:28.477Z,7.18
2022-11-27T20:38:57.560Z,7.13
2022-11-27T20:41:24.345Z,7.28
2022-11-27T20:43:54.959Z,7.60
2022-11-27T20:46:21.759Z,7.60
2022-11-27T20:48:48.948Z,7.78
2022-11-27T20:51:16.639Z,7.63
2022-11-27T20:53:44.173Z,7.97
2022-11-27T20:56:11.385Z,7.72
2022-11-27T20:58:38.855Z,8.20
2022-11-27T21:01:19.832Z,7.88
2022-11-27T21:03:47.844Z,7.40
2022-11-27T21:06:14.767Z,7.47
2022-11-27T21:08:41.120Z,7.50
2022-11-27T21:11:11.485Z,7.10
2022-11-27T21:13:38.113Z,7.82
2022-11-27T21:16:06.957Z,7.13
2022-11-27T21:18:33.409Z,7.55
2022-11-27T21:21:11.360Z,7.07
2022-11-27T21:23:38.146Z,6.78
2022-11-27T21:26:05.441Z,6.90
2022-11-27T21:28:32.070Z,6.70
2022-11-27T21:31:08.246Z,7.05
2022-11-27T21:33:34.856Z,7.18
2022-11-27T21:36:01.235Z,6.53
2022-11-27T21:38:27.712Z,6.28
2022-11-27T21:40:54.257Z,6.45
2022-11-27T21:43:20.577Z,6.10
2022-11-27T21:45:47.054Z,6.78
2022-11-27T21:48:14.452Z,5.78
2022-11-27T21:50:40.936Z,5.72
2022-11-27T21:53:07.327Z,6.47
2022-11-27T21:55:33.661Z,5.75
2022-11-27T21:58:00.028Z,5.70
2022-11-27T22:00:26.388Z,5.93
2022-11-27T22:02:52.737Z,5.78
2022-11-27T22:05:19.073Z,5.43
2022-11-27T22:07:45.507Z,5.82
2022-11-27T22:10:11.995Z,5.40
2022-11-27T22:12:38.348Z,4.88
2022-11-27T22:15:04.931Z,5.10
2022-11-27T22:17:31.402Z,5.82
2022-11-27T22:19:57.764Z,5.22
2022-11-27T22:22:24.110Z,5.22
2022-11-27T22:24:50.531Z,5.63
2022-11-27T22:27:16.832Z,5.05
2022-11-27T22:29:43.165Z,5.13
2022-11-27T22:32:09.528Z,5.10
2022-11-27T22:34:35.890Z,5.57
2022-11-27T22:37:03.713Z,5.93
2022-11-27T22:39:30.113Z,6.65
2022-11-27T22:41:56.450Z,7.00
2022-11-27T22:44:22.823Z,7.25
2022-11-27T22:46:49.220Z,6.93
2022-11-27T22:49:17.554Z,5.70
2022-11-27T22:51:44.202Z,5.15
2022-11-27T22:54:14.934Z,5.18
2022-11-27T22:56:41.385Z,4.68
2022-11-27T23:01:54.481Z,5.10
2022-11-27T23:04:20.808Z,4.57
2022-11-27T23:06:48.584Z,4.50
2022-11-27T23:09:16.022Z,4.20
2022-11-27T23:11:42.358Z,4.10
2022-11-27T23:14:08.837Z,3.65
2022-11-27T23:16:35.435Z,4.20
2022-11-27T23:19:01.855Z,3.80
2022-11-27T23:21:28.313Z,3.85
2022-11-27T23:23:54.731Z,3.70
2022-11-27T23:26:22.043Z,4.00
2022-11-27T23:28:49.474Z,3.90
2022-11-27T23:31:33.171Z,4.07
2022-11-27T23:34:01.662Z,3.42
2022-11-27T23:36:28.468Z,3.88
2022-11-27T23:38:54.837Z,3.88
2022-11-27T23:41:22.165Z,4.10
2022-11-27T23:43:48.858Z,4.15
2022-11-27T23:46:16.091Z,3.70
2022-11-27T23:48:43.094Z,3.83
2022-11-27T23:51:10.614Z,3.25
2022-11-27T23:53:37.073Z,3.55
2022-11-27T23:56:04.237Z,3.95
2022-11-27T23:58:30.680Z,3.55
